KMTW/MTW METAR and TAF weather

Enter ICAO airport designator
Station Type Date Time Source
KMTW METAR 2021/05/11 00:56 UTC NOAA

KMTW 110056Z AUTO 00000KT 10SM BKN070 OVC100 05/02 A3022 RMK AO2 SLP240 T00500022


Station Type Date Time Source
KMTW Decoded METAR 2021/05/11 00:56 UTC NOAA

Manitowoc, Manitowoc County Airport, WI, United States (KMTW) 44-08N 087-41W
May 10, 2021 - 08:56 PM EDT / 2021.05.11 0056 UTC
Wind: Calm:0
Visibility: 10 mile(s):0
Sky conditions: overcast
Temperature: 41.0 F (5.0 C)
Dew Point: 36.0 F (2.2 C)
Relative Humidity: 82%
Pressure (altimeter): 30.22 in. Hg (1023 hPa)
ob: KMTW 110056Z AUTO 00000KT 10SM BKN070 OVC100 05/02 A3022 RMK AO2 SLP240 T00500022
cycle: 1

Station Type Date Time Source
KMTW TAF 2021/05/10 21:36 UTC NOAA

TAF
AMD KMTW 102032Z 1021/1118 09006KT P6SM BKN050 OVC070
TEMPO 1021/1023 -SHRA
FM110300 33003KT P6SM SCT060
FM110700 32005KT P6SM SKC
FM111400 35009G16KT P6SM SKC

Example: see airport list